• Join FlightAware (Why Join?)
  • Login
  • US Flag 
02:58PM EST


 

Airport Tracker/Info


-or-


 

Live Flight TrackerFlight Track Log ✈ KAP46 ✈ 20-Jun-2013 ✈ KALB - KMSS

Flight Track Log - Related Links

Times and Time Zones

All times are in EDT time to prevent confusion due to time zone crossing. See the KAP46 flight status page for this flight to view local times or setup timezone preferences in your user account.

Time Position Orientation Groundspeed Altitude Reporting Facility
EDT Latitude Longitude Course Direction KTS MPH feet Rate Location/Type
06:51PM 43.0236 -73.9736 341° North 148 170 5,900  Level Boston Center
06:52PM 43.0589 -73.9858 346° North 164 189 6,400 273 Climbing Boston Center
06:54PM 43.1025 -74.0069 341° North 151 174 6,500 45 Climbing Boston Center
06:55PM 43.1561 -74.0339 340° North 158 182 6,500  Level Boston Center
06:56PM 43.2017 -74.0550 341° North 169 194 6,500  Level Boston Center
06:57PM 43.2549 -74.0361 341° North  Level Estimated
06:57PM 43.2431 -74.0761 340° North 169 194 6,500  Level Boston Center
06:58PM 43.2764 -74.0914 342° North 164 189 6,500  Level Boston Center
06:59PM 43.3261 -74.1097 345° North 159 183 6,500  Level Boston Center
07:00PM 43.3653 -74.1281 341° North 154 177 6,500 50 Level Boston Center
07:01PM 43.4067 -74.1461 342° North 154 177 6,600 50 Climbing Boston Center
07:02PM 43.4461 -74.1644 341° North 154 177 6,600  Level Boston Center
07:03PM 43.4814 -74.1797 343° North 154 177 6,600  Level Boston Center
07:04PM 43.5308 -74.2042 340° North 148 170 6,600  Level Boston Center
07:05PM 43.5683 -74.2194 344° North 148 170 6,600  Level Boston Center
07:06PM 43.6117 -74.2408 340° North 148 170 6,600  Level Boston Center
07:07PM 43.6531 -74.2594 342° North 148 170 6,600  Level Boston Center
07:09PM 43.7358 -74.2936 343° North 148 170 6,600  Level Boston Center
07:10PM 43.7669 -74.3089 340° North 148 170 6,600  Level Boston Center
07:11PM 43.8167 -74.3278 345° North 148 170 6,600  Level Boston Center
07:12PM 43.8578 -74.3492 339° North 148 170 6,600  Level Boston Center
07:13PM 43.8992 -74.3647 345° North 148 170 6,600 -50 Level Boston Center
07:14PM 43.9428 -74.3864 340° North 148 170 6,500 -50 Descending Boston Center
07:15PM 43.9839 -74.4081 339° North 148 170 6,500  Level Boston Center
07:16PM 44.0233 -74.4236 344° North 148 170 6,500  Level Boston Center
07:17PM 44.0689 -74.4453 341° North 155 178 6,500  Level Boston Center
07:18PM 44.1122 -74.4642 343° North 155 178 6,500  Level Boston Center
07:19PM 44.1556 -74.4831 343° North 160 184 6,500 50 Level Boston Center
07:20PM 44.1992 -74.5047 340° North 160 184 6,600 50 Climbing Boston Center
07:21PM 44.2444 -74.5239 343° North 166 191 6,600  Level Boston Center
07:22PM 44.2881 -74.5428 343° North 166 191 6,600  Level Boston Center
07:23PM 44.3314 -74.5644 340° North 166 191 6,600  Level Boston Center
07:24PM 44.3667 -74.5744 349° North 166 191 6,600  Level Boston Center
07:25PM 44.4222 -74.6056 338° Northwest 166 191 6,600  Level Boston Center
07:26PM 44.4678 -74.6247 343° North 166 191 6,600  Level Boston Center
07:27PM 44.5092 -74.6439 342° North 166 191 6,600  Level Boston Center
07:28PM 44.5525 -74.6628 343° North 166 191 6,600  Level Boston Center
07:29PM 44.5936 -74.6819 342° North 166 191 6,600 -50 Level Boston Center
07:30PM 44.6369 -74.7039 340° North 161 185 6,500 -350 Descending Boston Center
07:31PM 44.6825 -74.7233 343° North 166 191 5,900 -600 Descending Boston Center
07:32PM 44.7281 -74.7367 348° North 171 197 5,300 -500 Descending Boston Center
07:33PM 44.7800 -74.7503 349° North 176 203 4,900 600 Descending Boston Center
07:34PM 44.8275 -74.7669 346° North 176 203 6,500 1,600 Climbing Boston Center